createdAt,value
2023-03-24T00:16:43.537Z,13.60
2023-03-24T00:19:13.615Z,13.50
2023-03-24T00:24:11.244Z,13.40
2023-03-24T00:26:40.189Z,13.40
2023-03-24T00:29:11.148Z,13.40
2023-03-24T00:34:08.841Z,13.30
2023-03-24T00:36:36.676Z,13.30
2023-03-24T00:39:05.034Z,13.20
2023-03-24T00:44:03.525Z,13.20
2023-03-24T00:49:05.526Z,13.10
2023-03-24T00:51:38.403Z,12.90
2023-03-24T00:54:07.074Z,12.90
2023-03-24T00:56:36.075Z,13.10
2023-03-24T01:01:36.525Z,13.10
2023-03-24T01:04:06.021Z,13.10
2023-03-24T01:09:05.712Z,13.00
2023-03-24T01:11:38.619Z,12.90
2023-03-24T01:41:06.995Z,12.50
2023-03-24T01:43:35.475Z,12.70
2023-03-24T01:48:59.159Z,12.70
2023-03-24T01:51:35.521Z,12.80
2023-03-24T01:54:14.648Z,13.30
2023-03-24T01:56:47.323Z,12.70
2023-03-24T01:59:18.780Z,12.60
2023-03-24T02:01:46.808Z,12.60
2023-03-24T02:04:14.520Z,12.70
2023-03-24T02:06:44.070Z,12.30
2023-03-24T02:09:12.758Z,12.50
2023-03-24T02:11:41.196Z,12.50
2023-03-24T02:14:09.311Z,12.70
2023-03-24T02:16:59.714Z,12.60
2023-03-24T02:20:05.625Z,12.60
2023-03-24T02:22:44.084Z,12.80
2023-03-24T02:25:54.999Z,12.80
2023-03-24T02:28:48.552Z,12.70
2023-03-24T02:31:39.558Z,12.90
2023-03-24T02:34:30.798Z,12.70
2023-03-24T02:37:21.604Z,12.60
2023-03-24T02:40:12.255Z,12.70
2023-03-24T02:45:17.786Z,12.30
2023-03-24T02:47:59.293Z,12.50
2023-03-24T02:50:36.161Z,12.40
2023-03-24T02:53:16.670Z,12.50
2023-03-24T02:55:54.811Z,12.50
2023-03-24T02:58:53.892Z,12.40
2023-03-24T03:01:32.785Z,12.40
2023-03-24T03:04:06.872Z,12.40
2023-03-24T03:06:39.561Z,12.40
2023-03-24T03:09:13.086Z,12.40
2023-03-24T03:11:43.346Z,12.40
2023-03-24T03:14:15.862Z,12.30
2023-03-24T03:16:48.608Z,12.30
2023-03-24T03:19:23.200Z,12.30
2023-03-24T03:21:51.905Z,12.20
2023-03-24T03:24:27.775Z,11.90
2023-03-24T03:27:03.528Z,12.10
2023-03-24T03:29:39.058Z,12.00
2023-03-24T03:32:09.460Z,12.00
2023-03-24T03:39:35.446Z,12.00
2023-03-24T03:42:04.610Z,11.90
2023-03-24T03:54:25.600Z,11.80
2023-03-24T03:59:35.572Z,11.80
2023-03-24T04:02:28.226Z,11.80
2023-03-24T04:07:47.718Z,12.20
2023-03-24T04:10:28.669Z,11.80
2023-03-24T04:13:23.017Z,11.90
2023-03-24T04:15:57.870Z,11.70
2023-03-24T04:18:43.527Z,11.70
2023-03-24T04:21:33.682Z,11.80
2023-03-24T04:24:40.292Z,11.70
2023-03-24T04:27:14.647Z,11.40
2023-03-24T04:29:46.981Z,11.70
2023-03-24T04:32:20.077Z,11.70
2023-03-24T04:34:51.076Z,11.70
2023-03-24T04:37:27.667Z,11.70
2023-03-24T04:39:59.083Z,11.70
2023-03-24T04:42:36.127Z,11.70
2023-03-24T04:45:05.796Z,11.70
2023-03-24T04:47:38.641Z,11.80
2023-03-24T04:50:11.481Z,11.90
2023-03-24T04:52:42.701Z,11.80
2023-03-24T04:55:48.262Z,11.70
2023-03-24T05:00:44.208Z,11.60
2023-03-24T05:03:14.672Z,11.80
2023-03-24T05:05:46.013Z,11.80
2023-03-24T05:18:04.991Z,11.90
2023-03-24T05:20:32.591Z,11.80
2023-03-24T06:22:18.729Z,12.20
2023-03-24T06:29:45.167Z,12.10
2023-03-24T07:19:08.495Z,12.30
2023-03-24T07:48:37.756Z,12.60
2023-03-24T08:33:02.633Z,13.10
2023-03-24T08:35:34.662Z,13.20
2023-03-24T08:38:06.064Z,13.20
2023-03-24T08:40:34.966Z,13.20
2023-03-24T08:43:04.446Z,13.30
2023-03-24T08:45:32.826Z,13.30
2023-03-24T08:48:05.270Z,13.30
2023-03-24T08:50:41.077Z,13.40
2023-03-24T09:08:12.715Z,13.60
2023-03-24T09:10:40.839Z,13.60
2023-03-24T09:37:44.081Z,13.90
2023-03-24T09:40:29.510Z,14.00
2023-03-24T09:43:04.846Z,14.00
2023-03-24T09:45:37.253Z,14.10
2023-03-24T09:48:42.800Z,13.80
2023-03-24T09:51:29.219Z,14.10
2023-03-24T09:54:08.266Z,14.00
2023-03-24T09:56:38.494Z,14.00
2023-03-24T09:59:36.361Z,13.90
2023-03-24T10:02:15.407Z,14.00
2023-03-24T10:07:25.416Z,14.30
2023-03-24T10:10:00.072Z,14.00
2023-03-24T10:12:39.245Z,14.00
2023-03-24T10:15:37.646Z,13.90
2023-03-24T10:18:20.888Z,13.90
2023-03-24T10:20:59.313Z,13.80
2023-03-24T10:23:51.466Z,13.70
2023-03-24T10:26:32.604Z,13.70
2023-03-24T10:29:27.189Z,13.60
2023-03-24T10:32:00.364Z,13.60
2023-03-24T10:34:30.350Z,13.70
2023-03-24T10:36:59.531Z,13.60
2023-03-24T10:42:18.760Z,13.50
2023-03-24T10:44:51.088Z,13.50
2023-03-24T10:47:24.227Z,13.50
2023-03-24T10:50:12.240Z,13.50
2023-03-24T10:52:45.553Z,13.50
2023-03-24T10:55:19.315Z,13.70
2023-03-24T10:57:53.825Z,13.60
2023-03-24T11:00:24.577Z,13.40
2023-03-24T11:03:01.118Z,13.50
2023-03-24T11:05:33.314Z,13.60
2023-03-24T11:08:30.887Z,13.60
2023-03-24T11:13:33.637Z,13.80
2023-03-24T11:16:09.336Z,13.90
2023-03-24T11:21:06.236Z,13.90
2023-03-24T11:23:42.910Z,14.00
2023-03-24T11:28:46.900Z,14.10
2023-03-24T11:31:24.387Z,14.20
2023-03-24T11:34:24.287Z,14.30
2023-03-24T11:42:12.428Z,14.20
2023-03-24T11:47:21.971Z,14.10
2023-03-24T11:52:26.674Z,14.10
2023-03-24T11:57:39.495Z,14.10
2023-03-24T12:00:24.965Z,14.30
2023-03-24T12:03:05.072Z,14.40
2023-03-24T12:08:21.117Z,14.60
2023-03-24T12:13:31.897Z,14.80
2023-03-24T12:16:39.312Z,15.00
2023-03-24T12:19:26.652Z,15.30
2023-03-24T12:24:32.000Z,15.40
2023-03-24T12:27:00.738Z,15.40
2023-03-24T12:29:52.821Z,15.50
2023-03-24T12:32:55.175Z,15.20
2023-03-24T12:35:43.468Z,15.20
2023-03-24T12:38:45.804Z,15.50
2023-03-24T12:41:25.126Z,15.50
2023-03-24T12:44:16.548Z,15.50
2023-03-24T12:47:19.737Z,15.60
2023-03-24T12:53:06.646Z,15.90
2023-03-24T12:55:50.591Z,15.70
2023-03-24T12:58:34.544Z,15.70
2023-03-24T13:01:36.658Z,15.80
2023-03-24T13:04:21.661Z,15.90
2023-03-24T13:07:06.570Z,15.70
2023-03-24T13:09:48.886Z,15.80
2023-03-24T13:12:26.866Z,15.80
2023-03-24T13:15:14.223Z,15.90
2023-03-24T13:17:55.761Z,15.90
2023-03-24T13:20:40.345Z,16.60
2023-03-24T13:23:39.640Z,16.20
2023-03-24T13:26:23.404Z,16.20
2023-03-24T13:29:14.668Z,16.30
2023-03-24T13:34:41.891Z,16.10
2023-03-24T13:37:32.022Z,16.00
2023-03-24T13:40:01.441Z,16.20
2023-03-24T13:42:43.815Z,16.20
2023-03-24T13:45:55.539Z,16.20
2023-03-24T13:48:38.987Z,15.80
2023-03-24T13:51:14.525Z,16.00
2023-03-24T13:54:00.363Z,15.80
2023-03-24T13:56:56.741Z,16.00
2023-03-24T13:59:30.298Z,15.90
2023-03-24T14:02:49.600Z,15.90
2023-03-24T14:06:00.530Z,15.90
2023-03-24T14:08:43.861Z,16.10
2023-03-24T14:11:41.443Z,16.20
2023-03-24T14:14:21.213Z,16.20
2023-03-24T14:17:06.307Z,16.90
2023-03-24T14:19:39.444Z,16.30
2023-03-24T14:22:30.716Z,16.40
2023-03-24T14:25:01.199Z,16.50
2023-03-24T14:27:48.255Z,16.40
2023-03-24T14:30:25.763Z,16.20
2023-03-24T14:32:56.649Z,16.40
2023-03-24T14:35:32.051Z,16.60
2023-03-24T14:38:21.161Z,16.40
2023-03-24T14:40:56.932Z,16.40
2023-03-24T14:46:01.602Z,16.30
2023-03-24T14:48:51.873Z,16.20
2023-03-24T14:51:36.636Z,16.10
2023-03-24T14:54:27.455Z,16.10
2023-03-24T14:56:56.021Z,16.00
2023-03-24T14:59:28.062Z,16.00
2023-03-24T15:02:01.466Z,15.90
2023-03-24T15:14:24.120Z,15.70
2023-03-24T15:17:03.035Z,15.70
2023-03-24T15:19:31.256Z,15.60
2023-03-24T15:22:15.596Z,15.40
2023-03-24T15:24:43.256Z,15.60
2023-03-24T15:27:21.645Z,15.60
2023-03-24T15:29:55.000Z,15.50
2023-03-24T15:32:23.716Z,15.50
2023-03-24T15:35:00.347Z,15.60
2023-03-24T15:37:35.641Z,15.40
2023-03-24T15:42:45.014Z,15.30
2023-03-24T15:45:30.502Z,15.30
2023-03-24T15:47:58.644Z,15.30
2023-03-24T15:50:34.195Z,15.40
2023-03-24T15:53:23.089Z,15.20
2023-03-24T15:56:18.791Z,15.20
2023-03-24T16:03:48.482Z,15.00
2023-03-24T16:06:25.946Z,15.00
2023-03-24T16:08:53.304Z,15.20
2023-03-24T16:18:45.902Z,15.00
2023-03-24T16:21:17.470Z,14.90
2023-03-24T16:23:45.521Z,14.90
2023-03-24T16:26:27.096Z,14.70
2023-03-24T16:28:55.502Z,14.80
2023-03-24T16:31:26.751Z,14.70
2023-03-24T16:33:57.287Z,14.70
2023-03-24T16:38:57.217Z,14.70
2023-03-24T16:46:31.832Z,14.50
2023-03-24T16:48:59.981Z,14.40
2023-03-24T16:56:22.861Z,14.40
2023-03-24T17:01:28.172Z,14.30
2023-03-24T17:03:56.787Z,14.20
2023-03-24T17:06:24.979Z,14.10
2023-03-24T17:11:32.038Z,13.80
2023-03-24T17:16:33.391Z,13.50
2023-03-24T17:26:23.294Z,13.10
2023-03-24T17:36:16.595Z,12.80
2023-03-24T17:48:33.399Z,12.50
2023-03-24T17:55:57.366Z,12.20
2023-03-24T17:58:30.076Z,12.30
2023-03-24T18:00:58.485Z,12.30
2023-03-24T18:03:38.913Z,12.20
2023-03-24T18:06:16.441Z,12.20
2023-03-24T18:11:13.278Z,12.20
2023-03-24T18:16:19.974Z,12.00
2023-03-24T18:28:38.868Z,12.20
2023-03-24T18:31:15.435Z,12.10
2023-03-24T18:36:10.506Z,12.20
2023-03-24T18:41:07.021Z,12.00
2023-03-24T18:55:54.913Z,11.80
2023-03-24T19:00:52.366Z,11.80
2023-03-24T19:10:43.165Z,11.80
2023-03-24T19:13:12.298Z,11.80
2023-03-24T19:35:18.283Z,11.60
2023-03-24T19:45:10.068Z,11.50
2023-03-24T19:50:07.339Z,11.70
2023-03-24T20:07:23.330Z,11.50
2023-03-24T20:17:20.706Z,11.50
2023-03-24T20:19:48.140Z,11.40
2023-03-24T20:22:15.953Z,11.40
2023-03-24T20:24:44.596Z,11.40
2023-03-24T20:29:39.856Z,11.20
2023-03-24T20:32:10.098Z,11.40
2023-03-24T20:34:38.678Z,11.30
2023-03-24T20:37:06.707Z,11.30
2023-03-24T21:04:16.816Z,11.20
2023-03-24T21:31:29.699Z,10.90
2023-03-24T21:33:57.364Z,10.90
2023-03-24T21:36:29.916Z,10.60
2023-03-24T21:38:58.111Z,10.80
2023-03-24T21:46:22.566Z,10.80
2023-03-24T21:48:51.874Z,10.70
2023-03-24T21:51:24.595Z,10.60
2023-03-24T21:53:55.443Z,10.60
2023-03-24T22:18:35.359Z,10.30
2023-03-24T22:21:05.017Z,10.30
2023-03-24T22:23:34.525Z,10.40
2023-03-24T22:28:29.683Z,10.30
2023-03-24T22:31:08.054Z,10.30
2023-03-24T22:36:03.164Z,10.20
2023-03-24T22:38:31.131Z,10.10
2023-03-24T22:41:00.153Z,10.10
2023-03-24T22:43:28.644Z,10.10
2023-03-24T22:48:23.795Z,10.00
2023-03-24T22:58:14.069Z,9.90
2023-03-24T23:00:42.170Z,9.90
2023-03-24T23:05:41.101Z,9.80
2023-03-24T23:08:09.205Z,9.80
2023-03-24T23:10:37.048Z,9.70
2023-03-24T23:35:15.573Z,9.60
2023-03-24T23:40:14.816Z,9.40
2023-03-24T23:42:47.244Z,9.50
2023-03-24T23:45:19.938Z,9.40
2023-03-24T23:47:49.521Z,9.30
2023-03-24T23:55:13.063Z,9.40
2023-03-24T23:57:42.859Z,9.30
